Time;durP1;ratioP1;P1;durP2;ratioP2;P2;SDS_P1;SDS_P2;PMS_P1;PMS_P2;Temp;Humidity;BMP_temperature;BMP_pressure;BME280_temperature;BME280_humidity;BME280_pressure;Samples;Min_cycle;Max_cycle;Signal;HPM_P1;HPM_P2
2023/09/27 00:00:09;;;;;;;7.60;5.45;;;13.90;99.90;;;;;;5035370;28;20201;-88
2023/09/27 00:02:35;;;;;;;5.97;4.50;;;13.90;99.90;;;;;;5035248;28;20174;-89
2023/09/27 00:05:00;;;;;;;6.28;4.82;;;13.90;99.90;;;;;;5035571;28;20211;-89
2023/09/27 00:07:26;;;;;;;8.63;4.97;;;13.90;99.90;;;;;;5034974;28;20189;-89
2023/09/27 00:09:53;;;;;;;6.95;5.72;;;13.90;99.90;;;;;;5035232;28;20190;-89
2023/09/27 00:12:18;;;;;;;6.25;5.10;;;13.90;99.90;;;;;;5035279;28;20182;-89
2023/09/27 00:14:44;;;;;;;5.75;5.10;;;13.80;99.90;;;;;;5035200;28;20185;-89
2023/09/27 00:17:10;;;;;;;6.18;5.57;;;13.80;99.90;;;;;;5035437;28;20174;-90
2023/09/27 00:19:41;;;;;;;10.07;5.60;;;13.80;99.90;;;;;;5035125;28;20683;-89
2023/09/27 00:22:09;;;;;;;8.18;5.00;;;13.70;99.90;;;;;;5035037;28;20190;-87
2023/09/27 00:24:35;;;;;;;7.80;5.25;;;13.60;99.90;;;;;;5034826;28;20296;-88
2023/09/27 00:27:01;;;;;;;5.55;4.85;;;13.70;99.90;;;;;;5034587;28;20589;-88
2023/09/27 00:29:34;;;;;;;8.38;4.80;;;13.60;99.90;;;;;;5034718;28;20234;-88
2023/09/27 00:32:00;;;;;;;5.35;4.43;;;13.50;99.90;;;;;;5034721;28;20185;-88
2023/09/27 00:34:25;;;;;;;6.80;4.85;;;13.60;99.90;;;;;;5034428;28;20186;-89
2023/09/27 00:36:51;;;;;;;8.68;5.30;;;13.60;99.90;;;;;;5034581;28;20174;-88
2023/09/27 00:39:22;;;;;;;8.15;5.18;;;13.60;99.90;;;;;;5035962;28;20179;-89
2023/09/27 00:41:48;;;;;;;6.65;5.05;;;13.60;99.90;;;;;;5034936;28;20197;-89
2023/09/27 00:44:14;;;;;;;5.85;4.70;;;13.60;99.90;;;;;;5034517;28;20174;-89
2023/09/27 00:46:40;;;;;;;6.70;4.70;;;13.70;99.90;;;;;;5034262;28;20206;-88
2023/09/27 00:49:08;;;;;;;7.55;4.70;;;13.80;99.90;;;;;;5033850;28;20248;-89
2023/09/27 00:51:36;;;;;;;6.10;4.35;;;13.70;99.90;;;;;;5034596;28;20178;-88
2023/09/27 00:54:02;;;;;;;10.77;4.90;;;13.70;99.90;;;;;;5034541;28;20192;-89
2023/09/27 00:56:29;;;;;;;8.35;4.80;;;13.60;99.90;;;;;;5034412;28;20518;-89
2023/09/27 00:58:55;;;;;;;6.90;4.40;;;13.60;99.90;;;;;;5034269;28;20582;-89
2023/09/27 01:01:24;;;;;;;6.97;4.80;;;13.60;99.90;;;;;;5035528;28;20174;-88
2023/09/27 01:03:52;;;;;;;4.95;4.05;;;13.60;99.90;;;;;;5034283;28;20562;-89
2023/09/27 01:06:19;;;;;;;6.18;4.35;;;13.60;99.90;;;;;;5035238;28;20202;-88
2023/09/27 01:08:45;;;;;;;7.93;5.03;;;13.60;99.90;;;;;;5034065;28;20181;-88
2023/09/27 01:11:11;;;;;;;7.43;4.70;;;13.60;99.90;;;;;;5034184;28;20277;-89
2023/09/27 01:13:38;;;;;;;5.72;4.55;;;13.70;99.90;;;;;;5034263;28;20185;-89
2023/09/27 01:16:04;;;;;;;8.65;4.80;;;13.60;99.90;;;;;;5033982;28;20273;-88
2023/09/27 01:18:29;;;;;;;4.70;4.15;;;13.70;99.90;;;;;;5033714;28;20206;-88
2023/09/27 01:20:56;;;;;;;6.60;4.60;;;13.70;99.90;;;;;;5033838;28;20178;-88
2023/09/27 01:23:22;;;;;;;8.30;4.43;;;13.70;99.90;;;;;;5033755;28;20178;-88
2023/09/27 01:25:56;;;;;;;4.93;3.90;;;13.60;99.90;;;;;;5033826;28;20202;-88
2023/09/27 01:28:22;;;;;;;5.40;4.03;;;13.50;99.90;;;;;;5033561;28;20600;-88
2023/09/27 01:30:48;;;;;;;4.90;4.18;;;13.50;99.90;;;;;;5033640;28;20262;-88
2023/09/27 01:33:14;;;;;;;7.57;4.95;;;13.60;99.90;;;;;;5033472;28;20618;-89
2023/09/27 01:38:15;;;;;;;7.53;5.03;;;13.50;99.90;;;;;;5372205;22;20241;-88
2023/09/27 01:40:43;;;;;;;5.28;4.70;;;13.50;99.90;;;;;;5033496;28;20679;-88
2023/09/27 01:43:09;;;;;;;7.03;4.55;;;13.50;99.90;;;;;;5034750;28;20179;-88
2023/09/27 01:45:35;;;;;;;7.15;4.82;;;13.50;99.90;;;;;;5033309;28;20671;-88
2023/09/27 01:48:01;;;;;;;6.70;5.00;;;13.60;99.90;;;;;;5033251;28;20175;-89
2023/09/27 01:50:28;;;;;;;5.00;4.50;;;13.50;99.90;;;;;;5033134;28;20186;-89
2023/09/27 01:52:56;;;;;;;5.15;4.50;;;13.50;99.90;;;;;;5049528;28;20182;-89
2023/09/27 01:55:23;;;;;;;9.35;5.13;;;13.40;99.90;;;;;;5033771;28;20197;-89
2023/09/27 01:57:49;;;;;;;8.40;4.93;;;13.40;99.90;;;;;;5033696;28;20269;-89
2023/09/27 02:00:16;;;;;;;6.72;4.70;;;13.40;99.90;;;;;;5034249;28;20708;-89
2023/09/27 02:02:44;;;;;;;7.80;4.90;;;13.40;99.90;;;;;;5033862;28;20273;-89
2023/09/27 02:05:10;;;;;;;6.00;5.00;;;13.50;99.90;;;;;;5033504;28;20532;-90
2023/09/27 02:07:38;;;;;;;9.18;5.25;;;13.50;99.90;;;;;;5034808;28;20175;-88
2023/09/27 02:10:07;;;;;;;4.85;4.45;;;13.40;99.90;;;;;;5033361;28;20183;-88
2023/09/27 02:12:33;;;;;;;6.65;4.95;;;13.40;99.90;;;;;;5033372;28;20182;-89
2023/09/27 02:15:00;;;;;;;6.00;4.70;;;13.40;99.90;;;;;;5033570;28;20558;-89
2023/09/27 02:17:26;;;;;;;10.93;4.95;;;13.40;99.90;;;;;;5034682;28;20166;-89
2023/09/27 02:19:51;;;;;;;8.50;5.32;;;13.40;99.90;;;;;;5033259;28;20183;-88
2023/09/27 02:22:18;;;;;;;7.90;4.85;;;13.40;99.90;;;;;;5033382;28;20257;-90
2023/09/27 02:24:44;;;;;;;5.25;4.57;;;13.40;99.90;;;;;;5033549;28;20234;-89
2023/09/27 02:27:10;;;;;;;6.35;5.03;;;13.40;99.90;;;;;;5033650;28;20175;-89
2023/09/27 02:29:38;;;;;;;9.45;5.18;;;13.40;99.90;;;;;;5034840;28;20174;-90
2023/09/27 02:32:07;;;;;;;6.45;4.80;;;13.30;99.90;;;;;;5033595;28;20592;-91
2023/09/27 02:34:34;;;;;;;7.25;4.70;;;13.20;99.90;;;;;;5033310;28;20182;-90
2023/09/27 02:37:00;;;;;;;5.78;5.22;;;13.20;99.90;;;;;;5033324;28;20242;-90
2023/09/27 02:39:26;;;;;;;5.43;4.72;;;13.20;99.90;;;;;;5033407;28;20186;-89
2023/09/27 02:41:52;;;;;;;5.20;4.70;;;13.10;99.90;;;;;;5033706;28;20250;-90
2023/09/27 02:44:18;;;;;;;6.35;5.03;;;13.10;99.90;;;;;;5033322;28;20610;-89
2023/09/27 02:46:44;;;;;;;8.10;4.70;;;13.00;99.90;;;;;;5033462;28;20190;-89
2023/09/27 02:49:13;;;;;;;6.10;4.68;;;13.00;99.90;;;;;;5033505;28;20516;-89
2023/09/27 02:51:40;;;;;;;6.32;5.03;;;13.00;99.90;;;;;;5033193;28;20317;-89
2023/09/27 02:54:06;;;;;;;5.28;4.28;;;13.10;99.90;;;;;;5033409;28;20174;-90
2023/09/27 02:56:32;;;;;;;5.95;4.28;;;13.10;99.90;;;;;;5034591;28;20177;-90
2023/09/27 02:58:59;;;;;;;5.45;4.70;;;13.10;99.90;;;;;;5033420;28;20632;-89
2023/09/27 03:01:25;;;;;;;6.40;5.18;;;13.00;99.90;;;;;;5033366;28;20186;-90
2023/09/27 03:03:51;;;;;;;5.97;5.38;;;13.00;99.90;;;;;;5033381;28;20289;-89
2023/09/27 03:06:17;;;;;;;6.13;5.20;;;12.90;99.90;;;;;;5033215;28;20222;-89
2023/09/27 03:08:43;;;;;;;5.82;5.20;;;13.00;99.90;;;;;;5032777;28;20182;-89
2023/09/27 03:11:12;;;;;;;6.35;5.10;;;13.00;99.90;;;;;;5033321;28;20197;-89
2023/09/27 03:13:39;;;;;;;6.18;5.57;;;13.00;99.90;;;;;;5035703;28;20210;-90
2023/09/27 03:16:05;;;;;;;7.90;5.05;;;13.00;99.90;;;;;;5037849;28;20504;-90
2023/09/27 03:18:40;;;;;;;6.18;5.28;;;13.00;99.90;;;;;;5036549;28;20257;-89
2023/09/27 03:21:06;;;;;;;5.93;5.00;;;13.10;99.90;;;;;;5037917;28;20174;-90
2023/09/27 03:23:31;;;;;;;5.72;4.93;;;13.10;99.90;;;;;;5037310;28;20171;-90
2023/09/27 03:25:57;;;;;;;7.45;5.28;;;13.10;99.90;;;;;;5037538;28;20210;-89
2023/09/27 03:28:23;;;;;;;8.65;5.15;;;13.10;99.90;;;;;;5037534;28;20175;-90
2023/09/27 03:30:49;;;;;;;6.03;4.72;;;13.10;99.90;;;;;;5037745;28;20605;-89
2023/09/27 03:33:15;;;;;;;7.00;4.95;;;13.10;99.90;;;;;;5036257;28;20182;-89
2023/09/27 03:35:41;;;;;;;6.97;5.20;;;13.00;99.90;;;;;;5036221;28;20174;-90
2023/09/27 03:38:08;;;;;;;5.72;4.93;;;13.00;99.90;;;;;;5037014;28;20234;-90
2023/09/27 03:40:33;;;;;;;6.57;5.32;;;13.00;99.90;;;;;;5036332;28;20175;-90
2023/09/27 03:42:59;;;;;;;5.78;4.97;;;12.90;99.90;;;;;;5037275;28;20489;-90
2023/09/27 03:45:25;;;;;;;8.13;4.85;;;12.90;99.90;;;;;;5036329;28;20206;-89
2023/09/27 03:47:51;;;;;;;6.22;5.05;;;12.90;99.90;;;;;;5036160;28;20186;-89
2023/09/27 03:50:17;;;;;;;5.53;4.70;;;13.00;99.90;;;;;;5036257;28;20186;-89
2023/09/27 03:52:43;;;;;;;5.57;5.07;;;12.90;99.90;;;;;;5035692;28;20213;-90
2023/09/27 03:55:10;;;;;;;6.22;5.07;;;12.90;99.90;;;;;;5037205;28;20204;-89
2023/09/27 03:57:37;;;;;;;9.55;5.32;;;12.80;99.90;;;;;;5035837;28;20257;-90
2023/09/27 04:00:06;;;;;;;9.20;5.20;;;12.80;99.90;;;;;;5035780;28;20525;-89
2023/09/27 04:02:33;;;;;;;5.30;4.80;;;12.80;99.90;;;;;;5035776;28;20178;-89
2023/09/27 04:04:58;;;;;;;7.63;5.10;;;12.80;99.90;;;;;;5035461;28;20194;-88
2023/09/27 04:07:24;;;;;;;6.78;4.82;;;12.80;99.90;;;;;;5035460;28;20193;-89
2023/09/27 04:09:51;;;;;;;6.68;4.60;;;12.80;99.90;;;;;;5035102;28;20684;-89
2023/09/27 04:12:17;;;;;;;5.65;4.97;;;12.80;99.90;;;;;;5036546;28;20171;-88
2023/09/27 04:14:42;;;;;;;8.07;4.22;;;12.80;99.90;;;;;;5035269;28;20313;-89
2023/09/27 04:17:08;;;;;;;5.13;4.28;;;12.80;99.90;;;;;;5036404;28;20178;-89
2023/09/27 04:19:36;;;;;;;7.25;4.60;;;12.90;99.90;;;;;;5035454;28;20186;-89
2023/09/27 04:22:02;;;;;;;5.63;4.65;;;12.90;99.90;;;;;;5035547;28;20182;-89
2023/09/27 04:24:27;;;;;;;5.18;4.32;;;12.90;99.90;;;;;;5034560;28;20178;-89
2023/09/27 04:26:54;;;;;;;5.68;4.60;;;12.90;99.90;;;;;;5035006;28;20178;-89
2023/09/27 04:29:20;;;;;;;5.53;4.25;;;12.90;99.90;;;;;;5034902;28;20199;-88
2023/09/27 04:31:46;;;;;;;6.28;4.38;;;12.80;99.90;;;;;;5035073;28;20317;-87
2023/09/27 04:34:12;;;;;;;4.97;4.18;;;12.70;99.90;;;;;;5034713;28;20282;-88
2023/09/27 04:36:38;;;;;;;7.47;4.55;;;12.60;99.90;;;;;;5035658;28;20177;-87
2023/09/27 04:39:11;;;;;;;11.70;4.70;;;12.60;99.90;;;;;;5034889;28;20228;-89
2023/09/27 04:41:36;;;;;;;5.78;4.75;;;12.60;99.90;;;;;;5034914;28;20587;-89
2023/09/27 04:44:02;;;;;;;5.25;4.53;;;12.50;99.90;;;;;;5036086;28;20201;-88
2023/09/27 04:46:28;;;;;;;6.03;4.47;;;12.50;99.90;;;;;;5034746;28;20305;-88
2023/09/27 04:48:54;;;;;;;5.15;4.05;;;12.50;99.90;;;;;;5034662;28;20206;-88
2023/09/27 04:51:19;;;;;;;7.95;4.35;;;12.50;99.90;;;;;;5036014;28;20193;-89
2023/09/27 04:53:45;;;;;;;5.10;4.60;;;12.50;99.90;;;;;;5034319;28;20174;-88
2023/09/27 04:56:11;;;;;;;6.97;4.30;;;12.50;99.90;;;;;;5020510;28;20183;-89
2023/09/27 04:58:43;;;;;;;7.25;4.63;;;12.50;99.90;;;;;;5014825;28;20203;-88
2023/09/27 05:01:10;;;;;;;5.32;4.50;;;12.50;99.90;;;;;;5014594;28;20182;-88
2023/09/27 05:03:39;;;;;;;4.82;3.90;;;12.40;99.90;;;;;;5014487;28;20626;-88
2023/09/27 05:06:05;;;;;;;5.05;4.20;;;12.40;99.90;;;;;;5014427;28;20211;-88
2023/09/27 05:08:31;;;;;;;9.07;4.68;;;12.40;99.90;;;;;;5026566;28;20178;-88
2023/09/27 05:10:58;;;;;;;6.25;4.00;;;12.40;99.90;;;;;;5034121;28;20527;-88
2023/09/27 05:13:24;;;;;;;6.32;4.18;;;12.40;99.90;;;;;;5034008;28;20170;-88
2023/09/27 05:15:52;;;;;;;8.77;4.50;;;12.50;99.90;;;;;;5034016;28;20178;-88
2023/09/27 05:18:18;;;;;;;5.38;3.70;;;12.50;99.90;;;;;;5034975;28;20178;-88
2023/09/27 05:20:45;;;;;;;5.38;4.50;;;12.40;99.90;;;;;;5033943;28;20585;-88
2023/09/27 05:23:11;;;;;;;5.90;3.92;;;12.40;99.90;;;;;;5033941;28;20178;-88
2023/09/27 05:25:38;;;;;;;4.35;3.95;;;12.40;99.90;;;;;;5035258;28;20206;-89
2023/09/27 05:28:04;;;;;;;4.90;4.32;;;12.30;99.90;;;;;;5033886;28;20356;-86
2023/09/27 05:30:31;;;;;;;5.82;4.47;;;12.20;99.90;;;;;;5033775;28;20220;-88
2023/09/27 05:32:57;;;;;;;6.50;4.03;;;12.10;99.90;;;;;;5033594;28;20228;-88
2023/09/27 05:35:23;;;;;;;4.72;3.88;;;12.00;99.90;;;;;;5032874;28;20183;-87
2023/09/27 05:37:50;;;;;;;4.47;4.07;;;12.00;99.90;;;;;;5033063;28;20726;-88
2023/09/27 05:40:16;;;;;;;8.27;4.75;;;12.10;99.90;;;;;;5033600;28;20175;-87
2023/09/27 05:42:42;;;;;;;8.57;5.00;;;12.20;99.90;;;;;;5033545;28;20171;-89
2023/09/27 05:45:12;;;;;;;8.57;4.80;;;12.30;99.90;;;;;;5033491;28;20233;-88
2023/09/27 05:47:39;;;;;;;6.82;5.32;;;12.40;99.90;;;;;;5033555;28;20186;-88
2023/09/27 05:50:08;;;;;;;6.53;5.03;;;12.40;99.90;;;;;;5033213;28;20244;-88
2023/09/27 05:52:37;;;;;;;6.60;5.20;;;12.60;99.90;;;;;;5034364;28;20533;-88
2023/09/27 05:55:07;;;;;;;7.97;5.03;;;12.60;99.90;;;;;;5032842;28;20228;-88
2023/09/27 05:57:32;;;;;;;6.55;5.57;;;12.70;99.90;;;;;;5033217;28;20178;-88
2023/09/27 05:59:59;;;;;;;7.20;4.90;;;12.70;99.90;;;;;;5033352;28;20486;-88
2023/09/27 06:02:31;;;;;;;6.53;5.00;;;12.70;99.90;;;;;;5033427;28;20665;-88
2023/09/27 06:04:58;;;;;;;7.43;4.93;;;12.60;99.90;;;;;;5033352;28;20203;-88
2023/09/27 06:07:24;;;;;;;10.75;4.78;;;12.60;99.90;;;;;;5033371;28;20185;-88
2023/09/27 06:09:50;;;;;;;11.52;4.93;;;12.60;99.90;;;;;;5033170;28;20179;-88
2023/09/27 06:12:16;;;;;;;8.10;4.60;;;12.60;99.90;;;;;;5033536;28;20260;-88
2023/09/27 06:14:43;;;;;;;6.32;4.55;;;12.70;99.90;;;;;;5033528;28;20221;-88
2023/09/27 06:17:10;;;;;;;7.35;4.72;;;12.80;99.90;;;;;;5033401;28;20170;-88
2023/09/27 06:19:36;;;;;;;7.53;5.05;;;12.80;99.90;;;;;;5033568;28;20185;-88
2023/09/27 06:22:05;;;;;;;8.57;4.68;;;12.90;99.90;;;;;;5034186;28;20218;-88
2023/09/27 06:24:31;;;;;;;8.40;5.25;;;13.00;99.90;;;;;;5032507;28;20178;-88
2023/09/27 06:26:58;;;;;;;8.80;5.45;;;13.10;99.90;;;;;;5032975;28;20680;-88
2023/09/27 06:29:24;;;;;;;7.50;5.60;;;13.20;99.90;;;;;;5033410;28;20174;-88
2023/09/27 06:31:50;;;;;;;7.88;6.13;;;13.30;99.90;;;;;;5033005;28;20281;-88
2023/09/27 06:34:18;;;;;;;6.82;5.95;;;13.40;99.90;;;;;;5033083;28;20174;-88
2023/09/27 06:36:48;;;;;;;10.30;6.03;;;13.40;99.90;;;;;;5032707;28;21013;-88
2023/09/27 06:39:15;;;;;;;6.65;5.57;;;13.50;99.90;;;;;;5033890;28;20640;-88
2023/09/27 06:41:41;;;;;;;6.13;5.53;;;13.60;99.90;;;;;;5032825;28;20221;-88
2023/09/27 06:44:07;;;;;;;5.68;4.85;;;13.60;99.90;;;;;;5034160;28;20176;-88
2023/09/27 06:46:36;;;;;;;5.47;4.93;;;13.70;99.90;;;;;;5033853;28;20267;-89
2023/09/27 06:49:03;;;;;;;7.50;4.90;;;13.80;99.90;;;;;;5038125;28;20175;-89
2023/09/27 06:51:31;;;;;;;7.38;5.18;;;13.90;99.90;;;;;;5036699;28;20245;-88
2023/09/27 06:53:57;;;;;;;9.27;4.80;;;14.00;99.90;;;;;;5036274;28;20486;-88
2023/09/27 06:56:23;;;;;;;6.82;4.28;;;14.00;99.90;;;;;;5036620;28;20175;-88
2023/09/27 06:58:51;;;;;;;7.95;5.28;;;14.10;99.90;;;;;;5036417;28;20178;-88
2023/09/27 07:01:21;;;;;;;5.10;4.45;;;14.20;99.90;;;;;;5036611;28;20606;-88
2023/09/27 07:03:48;;;;;;;7.57;4.78;;;14.20;99.90;;;;;;5036595;28;20175;-88
2023/09/27 07:06:14;;;;;;;8.65;5.10;;;14.40;99.90;;;;;;5036483;28;20214;-88
2023/09/27 07:08:40;;;;;;;4.45;4.00;;;14.40;99.90;;;;;;5036029;28;20538;-89
2023/09/27 07:11:09;;;;;;;6.97;4.68;;;14.50;99.90;;;;;;5037386;28;20174;-88
2023/09/27 07:13:35;;;;;;;4.60;4.20;;;14.60;99.90;;;;;;5036516;28;20730;-89
2023/09/27 07:16:20;;;;;;;7.45;4.75;;;14.70;99.90;;;;;;5037630;28;20175;-88
2023/09/27 07:18:48;;;;;;;5.03;4.03;;;14.80;99.90;;;;;;5035459;28;20504;-88
2023/09/27 07:21:14;;;;;;;8.10;4.60;;;14.90;99.90;;;;;;5036327;28;20179;-88
2023/09/27 07:23:40;;;;;;;5.47;4.45;;;15.00;99.90;;;;;;5027156;28;20229;-89
2023/09/27 07:26:06;;;;;;;5.80;4.70;;;15.10;99.90;;;;;;5016274;28;20308;-87
2023/09/27 07:28:32;;;;;;;7.30;4.70;;;15.20;99.90;;;;;;5017404;28;20171;-88
2023/09/27 07:30:58;;;;;;;7.53;5.18;;;15.30;99.90;;;;;;5017428;28;20172;-88
2023/09/27 07:33:24;;;;;;;5.82;5.00;;;15.50;99.90;;;;;;5015856;28;20178;-87
2023/09/27 07:35:52;;;;;;;5.53;4.97;;;15.60;99.90;;;;;;5015630;28;20286;-86
2023/09/27 07:38:18;;;;;;;8.65;4.53;;;15.80;99.90;;;;;;5024249;28;20230;-89
2023/09/27 07:40:48;;;;;;;7.07;4.32;;;15.90;99.90;;;;;;5035379;28;20577;-87
2023/09/27 07:43:15;;;;;;;5.07;4.03;;;16.10;99.90;;;;;;5035287;28;20171;-87
2023/09/27 07:45:43;;;;;;;6.93;4.53;;;16.20;99.90;;;;;;5035229;28;20245;-88
2023/09/27 07:48:09;;;;;;;8.50;4.22;;;16.30;99.90;;;;;;5035054;28;20182;-87
2023/09/27 07:50:38;;;;;;;7.60;3.67;;;16.40;99.90;;;;;;5035247;28;20190;-87
2023/09/27 07:53:08;;;;;;;6.15;3.72;;;16.60;99.90;;;;;;5035356;28;20229;-88
2023/09/27 07:55:48;;;;;;;6.38;3.83;;;16.60;99.90;;;;;;5034886;28;20185;-87
2023/09/27 07:58:14;;;;;;;8.50;3.90;;;16.80;99.90;;;;;;5035479;28;20162;-88
2023/09/27 08:00:40;;;;;;;6.20;3.65;;;16.90;99.90;;;;;;5036339;28;20206;-88
2023/09/27 08:03:10;;;;;;;4.40;3.50;;;16.90;99.90;;;;;;5035097;28;20178;-89
2023/09/27 08:05:43;;;;;;;5.82;4.20;;;17.00;99.90;;;;;;5035022;28;20214;-88
2023/09/27 08:08:16;;;;;;;6.75;4.25;;;17.00;99.90;;;;;;5034772;28;20186;-87
2023/09/27 08:10:45;;;;;;;3.85;3.45;;;17.10;99.90;;;;;;5036028;28;20170;-88
2023/09/27 08:13:16;;;;;;;4.35;3.08;;;17.20;99.90;;;;;;5034869;28;20171;-88
2023/09/27 08:15:42;;;;;;;6.45;3.65;;;17.30;99.90;;;;;;5034858;28;20174;-88
2023/09/27 08:18:08;;;;;;;9.93;3.72;;;17.40;99.90;;;;;;5034816;28;20555;-88
2023/09/27 08:20:35;;;;;;;4.03;3.25;;;17.50;99.90;;;;;;5034544;28;20182;-87
2023/09/27 08:23:02;;;;;;;4.88;3.15;;;17.60;99.90;;;;;;5034440;28;20170;-87
2023/09/27 08:25:28;;;;;;;5.07;3.28;;;17.60;99.90;;;;;;5034260;28;20219;-87
2023/09/27 08:27:53;;;;;;;6.07;3.20;;;17.70;99.90;;;;;;5034480;28;20202;-87
2023/09/27 08:30:20;;;;;;;7.07;3.05;;;17.80;99.90;;;;;;5035508;28;20644;-87
2023/09/27 08:32:46;;;;;;;3.85;2.88;;;17.90;99.90;;;;;;5035535;28;20178;-87
2023/09/27 08:35:12;;;;;;;5.32;3.08;;;17.90;99.90;;;;;;5034250;28;20170;-86
2023/09/27 08:37:38;;;;;;;4.15;2.85;;;18.00;99.90;;;;;;5033768;28;20672;-86
2023/09/27 08:40:12;;;;;;;4.72;2.95;;;18.10;99.90;;;;;;5033999;28;20178;-88
2023/09/27 08:42:41;;;;;;;6.57;3.28;;;18.20;99.90;;;;;;5034510;28;20174;-87
2023/09/27 08:45:13;;;;;;;6.43;3.05;;;18.30;99.90;;;;;;5033954;28;20284;-86
2023/09/27 08:47:41;;;;;;;5.20;3.38;;;18.40;99.90;;;;;;5033937;28;20193;-89
2023/09/27 08:50:10;;;;;;;4.80;2.92;;;18.50;99.90;;;;;;5034096;28;20187;-86
2023/09/27 08:52:36;;;;;;;5.25;3.13;;;18.60;99.90;;;;;;5033864;28;20529;-86
2023/09/27 08:55:03;;;;;;;3.22;2.70;;;18.90;99.90;;;;;;5033696;28;20613;-87
2023/09/27 08:57:30;;;;;;;5.47;3.10;;;19.00;99.90;;;;;;5035098;28;20217;-86
2023/09/27 08:59:56;;;;;;;5.13;2.63;;;19.10;99.90;;;;;;5033836;28;20202;-87
2023/09/27 09:02:26;;;;;;;3.50;2.60;;;19.20;99.90;;;;;;5035501;28;20617;-87
2023/09/27 09:04:52;;;;;;;6.97;2.88;;;19.20;99.90;;;;;;5034365;28;20206;-88
2023/09/27 09:07:18;;;;;;;6.85;2.85;;;19.20;99.90;;;;;;5035043;28;20179;-87
2023/09/27 09:09:45;;;;;;;4.65;2.90;;;19.20;99.90;;;;;;5038969;28;20177;-88
2023/09/27 09:12:17;;;;;;;3.15;2.70;;;19.20;99.90;;;;;;5044389;28;20174;-88
2023/09/27 09:14:54;;;;;;;7.00;3.10;;;19.20;99.90;;;;;;5045258;28;20179;-89
2023/09/27 09:17:25;;;;;;;6.82;2.75;;;19.30;99.90;;;;;;5041971;28;20170;-88
2023/09/27 09:20:15;;;;;;;6.97;3.15;;;19.30;99.90;;;;;;5037425;28;20212;-88
2023/09/27 09:22:49;;;;;;;4.50;2.58;;;19.30;99.90;;;;;;5035468;28;20590;-91
2023/09/27 09:25:16;;;;;;;4.78;2.40;;;19.20;99.90;;;;;;5034168;28;20209;-94
2023/09/27 09:27:43;;;;;;;3.47;2.63;;;19.20;99.90;;;;;;5034017;28;20174;-89
2023/09/27 09:30:12;;;;;;;4.57;2.67;;;19.20;99.90;;;;;;5034358;28;20182;-88
2023/09/27 09:32:50;;;;;;;4.90;2.60;;;19.30;99.90;;;;;;5033856;28;20185;-89
2023/09/27 09:35:31;;;;;;;4.25;2.75;;;19.50;99.90;;;;;;5033671;28;20220;-90
2023/09/27 09:37:59;;;;;;;4.20;2.80;;;19.60;99.90;;;;;;5032944;28;20238;-88
2023/09/27 09:40:25;;;;;;;4.47;2.95;;;19.70;99.90;;;;;;5033642;28;20183;-90
2023/09/27 09:42:50;;;;;;;3.78;2.92;;;19.80;99.90;;;;;;5033535;28;20181;-87
2023/09/27 09:45:16;;;;;;;3.72;2.90;;;19.90;99.90;;;;;;5033830;28;20551;-87
2023/09/27 09:47:44;;;;;;;3.70;2.00;;;20.00;99.90;;;;;;5034616;28;20636;-87
2023/09/27 09:50:16;;;;;;;4.70;2.50;;;20.10;99.90;;;;;;5034728;28;20182;-90
2023/09/27 09:52:56;;;;;;;3.92;2.40;;;20.20;99.90;;;;;;5034269;28;20629;-91
2023/09/27 09:55:23;;;;;;;4.32;2.42;;;20.40;99.90;;;;;;5033494;28;20254;-91
2023/09/27 09:57:56;;;;;;;3.10;2.40;;;20.50;99.90;;;;;;5033691;28;20182;-87
2023/09/27 10:00:30;;;;;;;5.40;3.03;;;20.60;99.90;;;;;;5033901;28;20237;-93
2023/09/27 10:03:04;;;;;;;4.43;2.72;;;20.60;99.90;;;;;;5034765;28;20166;-91
2023/09/27 10:05:38;;;;;;;4.78;2.90;;;20.70;99.90;;;;;;5034850;28;20198;-90
2023/09/27 10:08:08;;;;;;;4.18;2.45;;;20.60;99.90;;;;;;5034600;28;20186;-87
2023/09/27 10:10:35;;;;;;;3.90;2.67;;;20.70;99.90;;;;;;5033172;28;20613;-88
2023/09/27 10:13:05;;;;;;;4.05;2.53;;;20.70;99.90;;;;;;5034631;28;20202;-88
2023/09/27 10:15:34;;;;;;;5.95;2.55;;;20.70;99.90;;;;;;5034585;28;20159;-89
2023/09/27 10:18:22;;;;;;;5.78;2.70;;;20.60;99.90;;;;;;5033446;28;20186;-92
2023/09/27 10:21:03;;;;;;;3.25;2.53;;;20.70;99.90;;;;;;5034583;28;20693;-89
2023/09/27 10:23:45;;;;;;;4.00;2.45;;;20.70;99.90;;;;;;5037427;28;20248;-90
2023/09/27 10:26:25;;;;;;;4.10;2.45;;;20.70;99.90;;;;;;5037533;28;20208;-91
2023/09/27 10:29:13;;;;;;;6.20;2.85;;;20.80;99.90;;;;;;5037188;28;20257;-90
2023/09/27 10:31:57;;;;;;;3.17;2.47;;;20.80;99.90;;;;;;5037298;28;20177;-90
2023/09/27 10:34:28;;;;;;;2.83;2.45;;;20.80;99.90;;;;;;5037192;28;20177;-89
2023/09/27 10:36:59;;;;;;;6.88;3.00;;;20.90;99.90;;;;;;5037026;28;20174;-91
2023/09/27 10:39:25;;;;;;;4.55;2.50;;;21.00;99.90;;;;;;5019818;28;20264;-89
2023/09/27 10:41:53;;;;;;;2.65;2.33;;;21.00;99.90;;;;;;5017324;28;20237;-90
2023/09/27 10:44:30;;;;;;;3.40;2.40;;;21.10;99.90;;;;;;5018602;28;20249;-89
2023/09/27 10:46:57;;;;;;;3.97;2.65;;;21.10;99.90;;;;;;5016938;28;20194;-91
2023/09/27 10:49:27;;;;;;;3.20;2.45;;;21.10;99.90;;;;;;5017362;28;20226;-91
2023/09/27 10:51:55;;;;;;;4.97;2.35;;;21.20;99.90;;;;;;5017319;28;20628;-90
2023/09/27 10:54:24;;;;;;;7.35;2.40;;;21.20;99.90;;;;;;5016844;28;20629;-90
2023/09/27 10:56:56;;;;;;;5.53;2.58;;;21.30;99.90;;;;;;5018450;28;20258;-91
2023/09/27 10:59:28;;;;;;;5.88;2.50;;;21.50;99.90;;;;;;5017254;28;20187;-89
2023/09/27 11:02:07;;;;;;;6.60;2.55;;;21.50;99.90;;;;;;5016596;28;20183;-89
2023/09/27 11:04:35;;;;;;;3.28;2.40;;;21.60;99.90;;;;;;5018126;28;20614;-90
2023/09/27 11:07:01;;;;;;;5.43;2.40;;;21.70;99.90;;;;;;5016764;28;20188;-89
2023/09/27 11:09:27;;;;;;;6.95;2.30;;;21.80;99.90;;;;;;5031740;28;20187;-94
2023/09/27 11:11:54;;;;;;;5.03;2.90;;;21.90;99.90;;;;;;5017713;28;20175;-90
2023/09/27 11:14:27;;;;;;;2.92;2.50;;;22.00;99.90;;;;;;5033186;28;20222;-93
2023/09/27 11:16:53;;;;;;;3.25;2.58;;;22.10;99.90;;;;;;5033390;28;20278;-94
2023/09/27 11:19:29;;;;;;;3.92;2.33;;;22.10;99.90;;;;;;5018120;28;20504;-94
2023/09/27 11:21:56;;;;;;;5.15;2.50;;;22.20;99.90;;;;;;5016872;28;20191;-95
2023/09/27 11:24:23;;;;;;;3.83;2.28;;;22.30;99.90;;;;;;5016775;28;20229;-94
2023/09/27 11:26:48;;;;;;;2.78;2.40;;;22.40;99.90;;;;;;5017222;28;20310;-96
2023/09/27 11:29:14;;;;;;;5.50;2.50;;;22.50;99.90;;;;;;5017399;28;20222;-94
2023/09/27 11:31:40;;;;;;;5.40;2.70;;;22.60;99.90;;;;;;5016724;28;20614;-95
2023/09/27 11:34:21;;;;;;;4.88;2.67;;;22.70;99.90;;;;;;5015595;28;20180;-95
2023/09/27 11:36:50;;;;;;;3.97;2.47;;;22.80;99.90;;;;;;5016513;28;20175;-95
2023/09/27 11:39:17;;;;;;;4.50;2.58;;;23.00;99.90;;;;;;5016864;28;20330;-96
2023/09/27 11:41:45;;;;;;;6.80;2.50;;;23.10;99.90;;;;;;5016789;28;20265;-96
2023/09/27 11:44:18;;;;;;;7.80;2.70;;;23.30;99.90;;;;;;5017493;28;20183;-95
2023/09/27 11:46:44;;;;;;;5.70;3.05;;;23.40;99.90;;;;;;5016557;28;20211;-95
2023/09/27 11:49:10;;;;;;;9.32;2.45;;;23.40;99.90;;;;;;5017044;28;20171;-95
2023/09/27 11:51:36;;;;;;;14.10;3.03;;;23.50;99.90;;;;;;5034899;28;20274;-95
2023/09/27 11:54:07;;;;;;;8.27;2.78;;;23.60;99.90;;;;;;5036493;28;20261;-95
2023/09/27 11:56:36;;;;;;;4.70;2.72;;;23.60;99.90;;;;;;5036902;28;20167;-95
2023/09/27 11:59:05;;;;;;;8.00;3.22;;;23.50;99.90;;;;;;5035966;28;20265;-94
2023/09/27 12:01:31;;;;;;;6.50;2.97;;;23.30;99.90;;;;;;5037444;28;20170;-95
2023/09/27 12:04:00;;;;;;;4.43;2.92;;;23.40;99.90;;;;;;5035955;28;20189;-95
2023/09/27 12:06:28;;;;;;;5.93;3.00;;;23.40;99.90;;;;;;5036058;28;20207;-96
2023/09/27 12:08:54;;;;;;;7.63;3.28;;;23.50;99.90;;;;;;5036458;28;20185;-95
2023/09/27 12:11:20;;;;;;;5.78;3.15;;;23.60;99.90;;;;;;5035886;28;20182;-91
2023/09/27 12:13:49;;;;;;;9.00;3.63;;;23.70;99.90;;;;;;5035513;28;20175;-94
2023/09/27 12:16:17;;;;;;;8.40;3.78;;;23.70;99.90;;;;;;5035712;28;20179;-92
2023/09/27 12:18:44;;;;;;;6.82;3.08;;;23.70;99.90;;;;;;5035882;28;20178;-93
2023/09/27 12:21:10;;;;;;;5.53;3.80;;;23.70;99.90;;;;;;5035240;28;20663;-92
2023/09/27 12:23:35;;;;;;;6.60;3.70;;;23.60;99.90;;;;;;5035147;28;20182;-90
2023/09/27 12:26:02;;;;;;;9.20;3.70;;;23.70;99.90;;;;;;5036723;28;20690;-92
2023/09/27 12:28:28;;;;;;;7.22;3.60;;;23.70;99.90;;;;;;5035595;28;20170;-91
2023/09/27 12:30:54;;;;;;;12.07;4.43;;;23.70;99.90;;;;;;5035897;28;20567;-92
2023/09/27 12:33:19;;;;;;;7.65;3.88;;;23.70;99.90;;;;;;5035844;28;20178;-95
2023/09/27 12:35:46;;;;;;;6.38;3.88;;;23.70;99.90;;;;;;5036062;28;20178;-92
2023/09/27 12:38:12;;;;;;;6.40;3.67;;;23.70;99.90;;;;;;5035256;28;20230;-93
2023/09/27 12:40:38;;;;;;;4.95;3.85;;;23.70;99.90;;;;;;5035223;28;20179;-93
2023/09/27 12:43:16;;;;;;;12.25;4.38;;;23.70;99.90;;;;;;5036338;28;20271;-90
2023/09/27 12:45:42;;;;;;;7.10;4.63;;;23.60;99.90;;;;;;5035547;28;20218;-91
2023/09/27 12:48:08;;;;;;;6.50;4.13;;;23.60;99.90;;;;;;5035549;28;20178;-93
2023/09/27 12:50:33;;;;;;;8.40;3.85;;;23.60;99.90;;;;;;5035220;28;20193;-94